sensor_id;sensor_type;location;lat;lon;timestamp;P1;durP1;ratioP1;P2;durP2;ratioP2
40541;SDS011;49288;52.194;5.676;2023-08-24T00:02:11;7.97;;;4.65;;
40541;SDS011;49288;52.194;5.676;2023-08-24T00:07:14;10.73;;;5.15;;
40541;SDS011;49288;52.194;5.676;2023-08-24T00:12:17;10.35;;;4.22;;
40541;SDS011;49288;52.194;5.676;2023-08-24T00:17:20;14.27;;;4.78;;
40541;SDS011;49288;52.194;5.676;2023-08-24T00:22:25;11.85;;;5.18;;
40541;SDS011;49288;52.194;5.676;2023-08-24T00:27:28;10.45;;;4.50;;
40541;SDS011;49288;52.194;5.676;2023-08-24T00:32:32;8.40;;;4.90;;
40541;SDS011;49288;52.194;5.676;2023-08-24T00:37:37;10.50;;;4.90;;
40541;SDS011;49288;52.194;5.676;2023-08-24T00:42:41;11.73;;;4.80;;
40541;SDS011;49288;52.194;5.676;2023-08-24T00:47:48;10.90;;;4.80;;
40541;SDS011;49288;52.194;5.676;2023-08-24T00:57:56;8.23;;;4.80;;
40541;SDS011;49288;52.194;5.676;2023-08-24T01:03:21;8.23;;;4.60;;
40541;SDS011;49288;52.194;5.676;2023-08-24T01:08:27;9.30;;;5.40;;
40541;SDS011;49288;52.194;5.676;2023-08-24T01:13:38;11.05;;;4.75;;
40541;SDS011;49288;52.194;5.676;2023-08-24T01:18:50;9.80;;;5.03;;
40541;SDS011;49288;52.194;5.676;2023-08-24T01:23:55;24.77;;;6.35;;
40541;SDS011;49288;52.194;5.676;2023-08-24T01:29:03;11.15;;;4.70;;
40541;SDS011;49288;52.194;5.676;2023-08-24T01:34:08;7.90;;;4.90;;
40541;SDS011;49288;52.194;5.676;2023-08-24T01:39:14;12.65;;;5.63;;
40541;SDS011;49288;52.194;5.676;2023-08-24T01:44:33;9.27;;;5.43;;
40541;SDS011;49288;52.194;5.676;2023-08-24T01:49:38;10.93;;;5.90;;
40541;SDS011;49288;52.194;5.676;2023-08-24T01:55:01;13.98;;;4.95;;
40541;SDS011;49288;52.194;5.676;2023-08-24T02:00:05;8.45;;;5.57;;
40541;SDS011;49288;52.194;5.676;2023-08-24T02:05:14;9.88;;;5.15;;
40541;SDS011;49288;52.194;5.676;2023-08-24T02:10:17;11.25;;;6.65;;
40541;SDS011;49288;52.194;5.676;2023-08-24T02:15:28;11.20;;;6.07;;
40541;SDS011;49288;52.194;5.676;2023-08-24T02:20:36;12.30;;;7.00;;
40541;SDS011;49288;52.194;5.676;2023-08-24T02:25:43;13.20;;;4.90;;
40541;SDS011;49288;52.194;5.676;2023-08-24T02:30:46;11.35;;;6.63;;
40541;SDS011;49288;52.194;5.676;2023-08-24T02:35:52;13.27;;;6.53;;
40541;SDS011;49288;52.194;5.676;2023-08-24T02:41:05;16.10;;;6.60;;
40541;SDS011;49288;52.194;5.676;2023-08-24T02:46:09;11.88;;;6.45;;
40541;SDS011;49288;52.194;5.676;2023-08-24T02:51:12;15.93;;;7.00;;
40541;SDS011;49288;52.194;5.676;2023-08-24T02:56:18;12.13;;;6.40;;
40541;SDS011;49288;52.194;5.676;2023-08-24T03:01:21;17.60;;;8.10;;
40541;SDS011;49288;52.194;5.676;2023-08-24T03:06:30;22.38;;;9.68;;
40541;SDS011;49288;52.194;5.676;2023-08-24T03:11:34;18.03;;;9.40;;
40541;SDS011;49288;52.194;5.676;2023-08-24T03:16:42;14.05;;;8.23;;
40541;SDS011;49288;52.194;5.676;2023-08-24T03:21:45;17.33;;;8.70;;
40541;SDS011;49288;52.194;5.676;2023-08-24T03:26:48;11.77;;;6.70;;
40541;SDS011;49288;52.194;5.676;2023-08-24T03:31:51;17.58;;;8.00;;
40541;SDS011;49288;52.194;5.676;2023-08-24T03:36:56;15.02;;;6.70;;
40541;SDS011;49288;52.194;5.676;2023-08-24T03:41:59;22.75;;;9.15;;
40541;SDS011;49288;52.194;5.676;2023-08-24T03:47:02;15.45;;;6.85;;
40541;SDS011;49288;52.194;5.676;2023-08-24T03:52:05;15.73;;;8.13;;
40541;SDS011;49288;52.194;5.676;2023-08-24T03:57:08;11.35;;;6.47;;
40541;SDS011;49288;52.194;5.676;2023-08-24T04:02:10;14.68;;;7.18;;
40541;SDS011;49288;52.194;5.676;2023-08-24T04:07:13;20.95;;;7.25;;
40541;SDS011;49288;52.194;5.676;2023-08-24T04:12:17;14.43;;;7.20;;
40541;SDS011;49288;52.194;5.676;2023-08-24T04:17:22;16.67;;;8.05;;
40541;SDS011;49288;52.194;5.676;2023-08-24T04:22:25;17.80;;;8.48;;
40541;SDS011;49288;52.194;5.676;2023-08-24T04:27:28;14.88;;;8.02;;
40541;SDS011;49288;52.194;5.676;2023-08-24T04:32:38;12.27;;;6.65;;
40541;SDS011;49288;52.194;5.676;2023-08-24T04:38:00;11.48;;;6.68;;
40541;SDS011;49288;52.194;5.676;2023-08-24T04:43:04;10.75;;;6.00;;
40541;SDS011;49288;52.194;5.676;2023-08-24T04:48:12;19.02;;;8.88;;
40541;SDS011;49288;52.194;5.676;2023-08-24T04:53:16;14.32;;;7.88;;
40541;SDS011;49288;52.194;5.676;2023-08-24T04:58:38;14.07;;;8.15;;
40541;SDS011;49288;52.194;5.676;2023-08-24T05:03:47;13.25;;;7.28;;
40541;SDS011;49288;52.194;5.676;2023-08-24T05:08:51;23.83;;;9.05;;
40541;SDS011;49288;52.194;5.676;2023-08-24T05:13:56;14.88;;;8.65;;
40541;SDS011;49288;52.194;5.676;2023-08-24T05:18:59;18.52;;;8.55;;
40541;SDS011;49288;52.194;5.676;2023-08-24T05:24:02;17.00;;;8.57;;
40541;SDS011;49288;52.194;5.676;2023-08-24T05:29:08;22.02;;;11.07;;
40541;SDS011;49288;52.194;5.676;2023-08-24T05:34:12;29.35;;;13.35;;
40541;SDS011;49288;52.194;5.676;2023-08-24T05:39:15;23.60;;;11.45;;
40541;SDS011;49288;52.194;5.676;2023-08-24T05:44:18;28.67;;;13.27;;
40541;SDS011;49288;52.194;5.676;2023-08-24T05:49:23;25.40;;;13.93;;
40541;SDS011;49288;52.194;5.676;2023-08-24T05:54:26;29.92;;;14.30;;
40541;SDS011;49288;52.194;5.676;2023-08-24T05:59:32;23.17;;;13.13;;
40541;SDS011;49288;52.194;5.676;2023-08-24T06:04:37;26.50;;;12.15;;
40541;SDS011;49288;52.194;5.676;2023-08-24T06:09:42;21.85;;;12.82;;
40541;SDS011;49288;52.194;5.676;2023-08-24T06:14:46;22.92;;;12.23;;
40541;SDS011;49288;52.194;5.676;2023-08-24T06:19:49;28.38;;;12.82;;
40541;SDS011;49288;52.194;5.676;2023-08-24T06:24:52;25.80;;;12.50;;
40541;SDS011;49288;52.194;5.676;2023-08-24T06:29:58;25.23;;;13.00;;
40541;SDS011;49288;52.194;5.676;2023-08-24T06:35:01;21.73;;;12.20;;
40541;SDS011;49288;52.194;5.676;2023-08-24T06:40:05;23.55;;;10.60;;
40541;SDS011;49288;52.194;5.676;2023-08-24T06:45:09;20.60;;;11.88;;
40541;SDS011;49288;52.194;5.676;2023-08-24T06:50:14;25.35;;;11.60;;
40541;SDS011;49288;52.194;5.676;2023-08-24T06:55:17;27.45;;;11.75;;
40541;SDS011;49288;52.194;5.676;2023-08-24T07:00:20;24.90;;;12.30;;
40541;SDS011;49288;52.194;5.676;2023-08-24T07:05:26;23.75;;;11.35;;
40541;SDS011;49288;52.194;5.676;2023-08-24T07:10:29;22.70;;;11.43;;
40541;SDS011;49288;52.194;5.676;2023-08-24T07:15:32;22.63;;;12.57;;
40541;SDS011;49288;52.194;5.676;2023-08-24T07:20:37;29.65;;;11.35;;
40541;SDS011;49288;52.194;5.676;2023-08-24T07:25:44;24.80;;;12.25;;
40541;SDS011;49288;52.194;5.676;2023-08-24T07:30:49;21.25;;;11.60;;
40541;SDS011;49288;52.194;5.676;2023-08-24T07:35:52;18.33;;;11.00;;
40541;SDS011;49288;52.194;5.676;2023-08-24T07:40:55;22.97;;;12.33;;
40541;SDS011;49288;52.194;5.676;2023-08-24T07:46:18;20.57;;;11.97;;
40541;SDS011;49288;52.194;5.676;2023-08-24T07:51:21;21.80;;;10.85;;
40541;SDS011;49288;52.194;5.676;2023-08-24T07:56:24;19.58;;;10.68;;
40541;SDS011;49288;52.194;5.676;2023-08-24T08:01:27;18.20;;;10.32;;
40541;SDS011;49288;52.194;5.676;2023-08-24T08:06:30;17.55;;;9.55;;
40541;SDS011;49288;52.194;5.676;2023-08-24T08:11:33;17.03;;;8.67;;
40541;SDS011;49288;52.194;5.676;2023-08-24T08:16:37;17.42;;;8.23;;
40541;SDS011;49288;52.194;5.676;2023-08-24T08:21:40;16.03;;;7.23;;
40541;SDS011;49288;52.194;5.676;2023-08-24T08:26:43;21.23;;;7.78;;
40541;SDS011;49288;52.194;5.676;2023-08-24T08:31:47;20.75;;;7.35;;
40541;SDS011;49288;52.194;5.676;2023-08-24T08:36:59;17.50;;;6.97;;
40541;SDS011;49288;52.194;5.676;2023-08-24T08:42:02;30.42;;;6.82;;
40541;SDS011;49288;52.194;5.676;2023-08-24T08:47:07;12.88;;;6.40;;
40541;SDS011;49288;52.194;5.676;2023-08-24T08:57:14;20.27;;;7.07;;
40541;SDS011;49288;52.194;5.676;2023-08-24T09:02:21;56.90;;;9.13;;
40541;SDS011;49288;52.194;5.676;2023-08-24T09:07:32;19.95;;;7.75;;
40541;SDS011;49288;52.194;5.676;2023-08-24T09:12:41;25.52;;;8.25;;
40541;SDS011;49288;52.194;5.676;2023-08-24T09:17:48;40.17;;;8.38;;
40541;SDS011;49288;52.194;5.676;2023-08-24T09:22:52;28.10;;;7.25;;
40541;SDS011;49288;52.194;5.676;2023-08-24T09:27:58;26.20;;;7.25;;
40541;SDS011;49288;52.194;5.676;2023-08-24T09:33:21;32.95;;;7.20;;
40541;SDS011;49288;52.194;5.676;2023-08-24T09:38:27;17.95;;;6.82;;
40541;SDS011;49288;52.194;5.676;2023-08-24T09:43:31;13.95;;;5.85;;
40541;SDS011;49288;52.194;5.676;2023-08-24T09:48:35;22.08;;;5.90;;
40541;SDS011;49288;52.194;5.676;2023-08-24T09:53:39;17.95;;;6.53;;
40541;SDS011;49288;52.194;5.676;2023-08-24T09:58:44;16.80;;;5.70;;
40541;SDS011;49288;52.194;5.676;2023-08-24T10:03:49;11.85;;;5.93;;
40541;SDS011;49288;52.194;5.676;2023-08-24T10:09:01;18.50;;;5.97;;
40541;SDS011;49288;52.194;5.676;2023-08-24T10:14:10;14.57;;;6.40;;
40541;SDS011;49288;52.194;5.676;2023-08-24T10:19:19;12.37;;;5.50;;
40541;SDS011;49288;52.194;5.676;2023-08-24T10:24:25;15.18;;;5.88;;
40541;SDS011;49288;52.194;5.676;2023-08-24T10:29:29;14.65;;;5.78;;
40541;SDS011;49288;52.194;5.676;2023-08-24T10:34:32;15.30;;;7.32;;
40541;SDS011;49288;52.194;5.676;2023-08-24T10:39:46;15.98;;;7.93;;
40541;SDS011;49288;52.194;5.676;2023-08-24T10:44:49;26.10;;;9.13;;
40541;SDS011;49288;52.194;5.676;2023-08-24T10:54:56;20.60;;;8.57;;
40541;SDS011;49288;52.194;5.676;2023-08-24T11:00:05;20.63;;;8.50;;
40541;SDS011;49288;52.194;5.676;2023-08-24T11:05:17;23.08;;;9.82;;
40541;SDS011;49288;52.194;5.676;2023-08-24T11:15:58;24.45;;;9.02;;
40541;SDS011;49288;52.194;5.676;2023-08-24T11:21:06;17.13;;;7.75;;
40541;SDS011;49288;52.194;5.676;2023-08-24T11:26:10;17.42;;;8.98;;
40541;SDS011;49288;52.194;5.676;2023-08-24T11:31:13;33.33;;;8.55;;
40541;SDS011;49288;52.194;5.676;2023-08-24T11:36:17;28.40;;;10.90;;
40541;SDS011;49288;52.194;5.676;2023-08-24T11:41:24;20.17;;;9.45;;
40541;SDS011;49288;52.194;5.676;2023-08-24T11:46:29;25.38;;;12.25;;
40541;SDS011;49288;52.194;5.676;2023-08-24T11:51:34;28.73;;;12.50;;
40541;SDS011;49288;52.194;5.676;2023-08-24T11:56:45;26.40;;;12.63;;
40541;SDS011;49288;52.194;5.676;2023-08-24T12:01:49;96.30;;;14.95;;
40541;SDS011;49288;52.194;5.676;2023-08-24T12:12:01;29.30;;;12.02;;
40541;SDS011;49288;52.194;5.676;2023-08-24T12:17:06;24.90;;;10.57;;
40541;SDS011;49288;52.194;5.676;2023-08-24T12:22:13;18.20;;;8.98;;
40541;SDS011;49288;52.194;5.676;2023-08-24T12:27:20;19.30;;;8.77;;
40541;SDS011;49288;52.194;5.676;2023-08-24T12:32:24;22.00;;;8.23;;
40541;SDS011;49288;52.194;5.676;2023-08-24T12:37:28;25.08;;;9.25;;
40541;SDS011;49288;52.194;5.676;2023-08-24T12:42:32;23.00;;;8.20;;
40541;SDS011;49288;52.194;5.676;2023-08-24T12:47:37;17.77;;;8.00;;
40541;SDS011;49288;52.194;5.676;2023-08-24T12:52:41;19.50;;;9.63;;
40541;SDS011;49288;52.194;5.676;2023-08-24T12:57:44;20.05;;;8.07;;
40541;SDS011;49288;52.194;5.676;2023-08-24T13:02:48;21.10;;;8.48;;
40541;SDS011;49288;52.194;5.676;2023-08-24T13:07:51;24.73;;;9.43;;
40541;SDS011;49288;52.194;5.676;2023-08-24T13:12:54;17.40;;;7.68;;
40541;SDS011;49288;52.194;5.676;2023-08-24T13:17:58;25.48;;;8.27;;
40541;SDS011;49288;52.194;5.676;2023-08-24T13:23:01;22.90;;;8.38;;
40541;SDS011;49288;52.194;5.676;2023-08-24T13:28:04;25.58;;;9.10;;
40541;SDS011;49288;52.194;5.676;2023-08-24T13:38:10;20.10;;;9.00;;
40541;SDS011;49288;52.194;5.676;2023-08-24T13:43:13;20.40;;;9.43;;
40541;SDS011;49288;52.194;5.676;2023-08-24T13:48:16;24.00;;;9.05;;
40541;SDS011;49288;52.194;5.676;2023-08-24T13:53:19;20.73;;;9.95;;
40541;SDS011;49288;52.194;5.676;2023-08-24T13:58:25;19.55;;;8.70;;
40541;SDS011;49288;52.194;5.676;2023-08-24T14:03:29;27.02;;;9.60;;
40541;SDS011;49288;52.194;5.676;2023-08-24T14:08:32;29.13;;;13.23;;
40541;SDS011;49288;52.194;5.676;2023-08-24T14:23:40;18.75;;;10.77;;
40541;SDS011;49288;52.194;5.676;2023-08-24T14:33:52;19.90;;;10.45;;
40541;SDS011;49288;52.194;5.676;2023-08-24T14:38:55;22.17;;;12.93;;
40541;SDS011;49288;52.194;5.676;2023-08-24T14:43:58;21.23;;;12.93;;
40541;SDS011;49288;52.194;5.676;2023-08-24T14:49:02;25.70;;;10.95;;
40541;SDS011;49288;52.194;5.676;2023-08-24T14:54:05;26.50;;;12.43;;
40541;SDS011;49288;52.194;5.676;2023-08-24T14:59:09;20.20;;;10.73;;
40541;SDS011;49288;52.194;5.676;2023-08-24T15:04:12;34.33;;;19.52;;
40541;SDS011;49288;52.194;5.676;2023-08-24T15:09:15;41.47;;;22.92;;
40541;SDS011;49288;52.194;5.676;2023-08-24T15:14:18;44.67;;;20.77;;
40541;SDS011;49288;52.194;5.676;2023-08-24T15:19:21;34.75;;;14.13;;
40541;SDS011;49288;52.194;5.676;2023-08-24T15:24:24;30.88;;;15.48;;
40541;SDS011;49288;52.194;5.676;2023-08-24T15:29:27;25.25;;;15.02;;
40541;SDS011;49288;52.194;5.676;2023-08-24T15:34:30;31.13;;;15.27;;
40541;SDS011;49288;52.194;5.676;2023-08-24T15:39:37;25.17;;;14.13;;
40541;SDS011;49288;52.194;5.676;2023-08-24T15:44:40;28.60;;;15.20;;
40541;SDS011;49288;52.194;5.676;2023-08-24T15:49:43;30.48;;;16.92;;
40541;SDS011;49288;52.194;5.676;2023-08-24T15:54:46;29.67;;;14.30;;
40541;SDS011;49288;52.194;5.676;2023-08-24T16:09:58;20.35;;;10.25;;
40541;SDS011;49288;52.194;5.676;2023-08-24T16:15:01;25.77;;;12.15;;
40541;SDS011;49288;52.194;5.676;2023-08-24T16:20:06;17.63;;;10.57;;
40541;SDS011;49288;52.194;5.676;2023-08-24T16:25:11;17.67;;;9.65;;
40541;SDS011;49288;52.194;5.676;2023-08-24T16:30:14;17.60;;;8.95;;
40541;SDS011;49288;52.194;5.676;2023-08-24T16:35:17;20.92;;;9.10;;
40541;SDS011;49288;52.194;5.676;2023-08-24T16:40:20;18.75;;;7.72;;
40541;SDS011;49288;52.194;5.676;2023-08-24T16:45:23;13.23;;;7.70;;
40541;SDS011;49288;52.194;5.676;2023-08-24T16:50:26;15.70;;;8.30;;
40541;SDS011;49288;52.194;5.676;2023-08-24T16:55:29;12.35;;;7.88;;
40541;SDS011;49288;52.194;5.676;2023-08-24T17:00:31;19.55;;;7.65;;
40541;SDS011;49288;52.194;5.676;2023-08-24T17:05:36;16.95;;;7.60;;
40541;SDS011;49288;52.194;5.676;2023-08-24T17:10:39;13.13;;;5.93;;
40541;SDS011;49288;52.194;5.676;2023-08-24T17:15:41;10.65;;;5.72;;
40541;SDS011;49288;52.194;5.676;2023-08-24T17:20:45;10.68;;;5.35;;
40541;SDS011;49288;52.194;5.676;2023-08-24T17:25:47;9.82;;;4.97;;
40541;SDS011;49288;52.194;5.676;2023-08-24T17:30:50;18.15;;;5.80;;
40541;SDS011;49288;52.194;5.676;2023-08-24T17:35:55;9.50;;;5.55;;
40541;SDS011;49288;52.194;5.676;2023-08-24T17:41:02;18.40;;;5.80;;
40541;SDS011;49288;52.194;5.676;2023-08-24T17:46:06;13.93;;;5.30;;
40541;SDS011;49288;52.194;5.676;2023-08-24T17:51:08;10.10;;;5.20;;
40541;SDS011;49288;52.194;5.676;2023-08-24T17:56:12;12.02;;;5.30;;
40541;SDS011;49288;52.194;5.676;2023-08-24T18:01:15;8.45;;;5.32;;
40541;SDS011;49288;52.194;5.676;2023-08-24T18:06:18;8.40;;;5.25;;
40541;SDS011;49288;52.194;5.676;2023-08-24T18:11:21;15.20;;;6.20;;
40541;SDS011;49288;52.194;5.676;2023-08-24T18:16:24;10.82;;;5.20;;
40541;SDS011;49288;52.194;5.676;2023-08-24T18:21:27;16.17;;;5.80;;
40541;SDS011;49288;52.194;5.676;2023-08-24T18:26:30;23.65;;;6.18;;
40541;SDS011;49288;52.194;5.676;2023-08-24T18:31:33;14.93;;;6.10;;
40541;SDS011;49288;52.194;5.676;2023-08-24T18:36:36;10.27;;;5.63;;
40541;SDS011;49288;52.194;5.676;2023-08-24T18:41:41;15.75;;;5.97;;
40541;SDS011;49288;52.194;5.676;2023-08-24T18:46:44;19.73;;;7.22;;
40541;SDS011;49288;52.194;5.676;2023-08-24T18:51:49;18.27;;;7.18;;
40541;SDS011;49288;52.194;5.676;2023-08-24T18:56:53;11.07;;;6.85;;
40541;SDS011;49288;52.194;5.676;2023-08-24T19:01:56;15.82;;;6.97;;
40541;SDS011;49288;52.194;5.676;2023-08-24T19:06:59;9.93;;;6.43;;
40541;SDS011;49288;52.194;5.676;2023-08-24T19:12:03;15.15;;;6.78;;
40541;SDS011;49288;52.194;5.676;2023-08-24T19:17:06;17.30;;;7.53;;
40541;SDS011;49288;52.194;5.676;2023-08-24T19:22:10;18.05;;;7.30;;
40541;SDS011;49288;52.194;5.676;2023-08-24T19:27:13;14.48;;;7.07;;
40541;SDS011;49288;52.194;5.676;2023-08-24T19:32:16;14.80;;;7.57;;
40541;SDS011;49288;52.194;5.676;2023-08-24T19:37:19;13.60;;;8.13;;
40541;SDS011;49288;52.194;5.676;2023-08-24T19:42:22;18.57;;;8.83;;
40541;SDS011;49288;52.194;5.676;2023-08-24T19:47:27;29.33;;;9.65;;
40541;SDS011;49288;52.194;5.676;2023-08-24T19:52:30;20.87;;;10.27;;
40541;SDS011;49288;52.194;5.676;2023-08-24T19:57:33;23.10;;;12.03;;
40541;SDS011;49288;52.194;5.676;2023-08-24T20:02:35;30.10;;;15.87;;
40541;SDS011;49288;52.194;5.676;2023-08-24T20:07:39;34.50;;;16.75;;
40541;SDS011;49288;52.194;5.676;2023-08-24T20:12:49;16.67;;;8.50;;
40541;SDS011;49288;52.194;5.676;2023-08-24T20:17:55;16.70;;;9.85;;
40541;SDS011;49288;52.194;5.676;2023-08-24T20:22:59;18.30;;;10.93;;
40541;SDS011;49288;52.194;5.676;2023-08-24T20:28:02;24.13;;;10.70;;
40541;SDS011;49288;52.194;5.676;2023-08-24T20:33:06;17.90;;;9.52;;
40541;SDS011;49288;52.194;5.676;2023-08-24T20:38:09;18.13;;;9.87;;
40541;SDS011;49288;52.194;5.676;2023-08-24T20:43:12;17.50;;;10.85;;
40541;SDS011;49288;52.194;5.676;2023-08-24T20:48:16;20.60;;;11.10;;
40541;SDS011;49288;52.194;5.676;2023-08-24T20:53:19;22.65;;;9.73;;
40541;SDS011;49288;52.194;5.676;2023-08-24T20:58:22;23.00;;;11.63;;
40541;SDS011;49288;52.194;5.676;2023-08-24T21:03:25;16.77;;;10.32;;
40541;SDS011;49288;52.194;5.676;2023-08-24T21:08:28;17.97;;;10.50;;
40541;SDS011;49288;52.194;5.676;2023-08-24T21:13:30;20.27;;;9.90;;
40541;SDS011;49288;52.194;5.676;2023-08-24T21:18:33;17.87;;;10.77;;
40541;SDS011;49288;52.194;5.676;2023-08-24T21:23:36;20.63;;;11.60;;
40541;SDS011;49288;52.194;5.676;2023-08-24T21:28:39;23.08;;;12.75;;
40541;SDS011;49288;52.194;5.676;2023-08-24T21:33:42;22.13;;;13.77;;
40541;SDS011;49288;52.194;5.676;2023-08-24T21:38:45;25.77;;;11.80;;
40541;SDS011;49288;52.194;5.676;2023-08-24T21:43:48;24.10;;;10.07;;
40541;SDS011;49288;52.194;5.676;2023-08-24T21:48:51;17.50;;;12.70;;
40541;SDS011;49288;52.194;5.676;2023-08-24T21:53:54;20.67;;;14.03;;
40541;SDS011;49288;52.194;5.676;2023-08-24T21:58:57;25.93;;;13.63;;
40541;SDS011;49288;52.194;5.676;2023-08-24T22:04:01;28.70;;;13.20;;
40541;SDS011;49288;52.194;5.676;2023-08-24T22:09:03;19.73;;;13.63;;
40541;SDS011;49288;52.194;5.676;2023-08-24T22:14:06;25.60;;;11.30;;
40541;SDS011;49288;52.194;5.676;2023-08-24T22:19:09;14.60;;;8.30;;
40541;SDS011;49288;52.194;5.676;2023-08-24T22:24:27;16.13;;;9.63;;
40541;SDS011;49288;52.194;5.676;2023-08-24T22:29:30;20.00;;;10.52;;
40541;SDS011;49288;52.194;5.676;2023-08-24T22:39:37;19.10;;;11.90;;
40541;SDS011;49288;52.194;5.676;2023-08-24T22:44:39;21.17;;;12.00;;
40541;SDS011;49288;52.194;5.676;2023-08-24T22:49:42;20.47;;;12.60;;
40541;SDS011;49288;52.194;5.676;2023-08-24T22:54:45;18.67;;;9.93;;
40541;SDS011;49288;52.194;5.676;2023-08-24T22:59:48;22.52;;;11.80;;
40541;SDS011;49288;52.194;5.676;2023-08-24T23:04:51;22.30;;;12.45;;
40541;SDS011;49288;52.194;5.676;2023-08-24T23:09:54;23.37;;;11.53;;
40541;SDS011;49288;52.194;5.676;2023-08-24T23:14:57;17.77;;;11.23;;
40541;SDS011;49288;52.194;5.676;2023-08-24T23:20:01;16.70;;;9.30;;
40541;SDS011;49288;52.194;5.676;2023-08-24T23:25:09;12.18;;;7.78;;
40541;SDS011;49288;52.194;5.676;2023-08-24T23:30:12;19.90;;;12.43;;
40541;SDS011;49288;52.194;5.676;2023-08-24T23:35:15;21.10;;;10.90;;
40541;SDS011;49288;52.194;5.676;2023-08-24T23:40:18;21.20;;;11.82;;
40541;SDS011;49288;52.194;5.676;2023-08-24T23:45:21;17.67;;;11.07;;
40541;SDS011;49288;52.194;5.676;2023-08-24T23:50:23;20.20;;;12.60;;
40541;SDS011;49288;52.194;5.676;2023-08-24T23:55:26;17.13;;;11.95;;
